Huvudsida
METAR-TAF:

METAR-TAF

Flygplatser :

Sankt Michels flygplats

Sankt Michel, Finland

latitud: 61-44N, longitud: 027-18E, höjd: 138 m

Aktuellt väderrapport

Denna rapport gjordes för 34 minuter sedan, klockan 14:20 UTC
Vind 13 kt från väst/sydväst, varierande mellan sydväst och väst/nordväst
Temperatur 19°C
Fuktighet 30%
Tryck 1025 hPa
Sikt 10 km eller mer
Inga moln under 1 500 m eller inga cumulonimbus

METAR: EFMI 231420Z AUTO 25013KT 220V290 CAVOK 19/01 Q1025

Tid: 17:54 (14:54 UTC)


TAF: saknas

Aktuella väderrapporter och prognoser från 4000 flygplatser (METAR- och TAF-rapporter).

De tillgängliga stationerna syns som gula och röda prickar på kartan.

För musen över prickarna för att se namnen på stationerna.

Klicka sedan för att få väderrapporter och prognoser.

För att ändra kartan: Klicka på de gröna knapparna med ett svart kors på för att zooma in; den gröna knappen med ett streck på för att zooma ut; eller på de gröna pilarna för angränsande kartor.


METAR-TAF: